createdAt,value
2023-04-17T12:31:29.044Z,1018.60
2023-04-17T12:32:29.989Z,1018.57
2023-04-17T12:33:30.877Z,1018.54
2023-04-17T12:34:31.797Z,1018.54
2023-04-17T12:35:32.670Z,1018.46
2023-04-17T12:36:33.578Z,1018.58
2023-04-17T12:37:34.414Z,1018.59
2023-04-17T12:38:35.273Z,1018.61
2023-04-17T12:39:36.181Z,1018.64
2023-04-17T12:40:37.064Z,1018.60
2023-04-17T12:41:37.906Z,1018.64
2023-04-17T12:42:48.299Z,1018.66
2023-04-17T12:43:40.495Z,1018.62
2023-04-17T12:44:40.390Z,1018.67
2023-04-17T12:45:42.410Z,1018.67
2023-04-17T12:46:41.950Z,1018.64
2023-04-17T12:47:42.832Z,1018.59
2023-04-17T12:48:43.714Z,1018.61
2023-04-17T12:49:44.629Z,1018.62
2023-04-17T12:50:45.509Z,1018.60
2023-04-17T12:51:46.357Z,1018.58
2023-04-17T12:52:47.219Z,1018.61
2023-04-17T12:53:48.100Z,1018.60
2023-04-17T12:54:48.941Z,1018.59
2023-04-17T12:55:49.793Z,1018.56
2023-04-17T12:56:50.695Z,1018.56
2023-04-17T12:57:51.568Z,1018.50
2023-04-17T12:58:52.436Z,1018.50
2023-04-17T12:59:53.317Z,1018.49
2023-04-17T13:00:54.204Z,1018.50
2023-04-17T13:01:55.153Z,1018.52
2023-04-17T13:02:55.598Z,1018.48
2023-04-17T13:03:56.202Z,1018.51
2023-04-17T13:04:56.754Z,1018.50
2023-04-17T13:05:57.556Z,1018.51
2023-04-17T13:06:58.411Z,1018.53
2023-04-17T13:07:59.246Z,1018.53
2023-04-17T13:09:00.107Z,1018.50
2023-04-17T13:10:00.976Z,1018.50
2023-04-17T13:11:01.906Z,1018.46
2023-04-17T13:12:02.744Z,1018.45
2023-04-17T13:13:03.553Z,1018.45
2023-04-17T13:14:04.416Z,1018.47
2023-04-17T13:15:05.296Z,1018.45
2023-04-17T13:16:06.170Z,1018.42
2023-04-17T13:17:07.069Z,1018.45
2023-04-17T13:18:07.961Z,1018.45
